createdAt,value
2017-11-09T00:00:42.337Z,7.20
2017-11-09T00:03:09.845Z,9.50
2017-11-09T00:05:43.169Z,8.40
2017-11-09T00:08:10.701Z,9.87
2017-11-09T00:10:38.223Z,9.30
2017-11-09T00:13:05.870Z,9.67
2017-11-09T00:15:33.386Z,9.10
2017-11-09T00:18:01.658Z,9.53
2017-11-09T00:20:30.060Z,9.13
2017-11-09T00:22:57.563Z,10.00
2017-11-09T00:25:25.077Z,10.80
2017-11-09T00:27:52.602Z,9.90
2017-11-09T00:30:20.100Z,9.60
2017-11-09T00:32:47.638Z,10.33
2017-11-09T00:35:15.997Z,9.63
2017-11-09T00:37:44.289Z,8.23
2017-11-09T00:40:12.590Z,9.90
2017-11-09T00:42:40.147Z,11.20
2017-11-09T00:45:07.687Z,10.00
2017-11-09T00:47:35.259Z,8.80
2017-11-09T00:50:02.766Z,10.50
2017-11-09T00:52:30.302Z,9.93
2017-11-09T00:54:57.803Z,10.20
2017-11-09T00:57:26.076Z,9.97
2017-11-09T00:59:54.367Z,9.10
2017-11-09T01:02:22.638Z,10.17
2017-11-09T01:04:50.927Z,9.47
2017-11-09T01:07:18.431Z,9.37
2017-11-09T01:09:46.055Z,10.33
2017-11-09T01:12:13.573Z,10.60
2017-11-09T01:14:41.113Z,11.53
2017-11-09T01:17:08.636Z,11.37
2017-11-09T01:19:36.158Z,10.83
2017-11-09T01:22:04.446Z,11.30
2017-11-09T01:24:31.954Z,11.10
2017-11-09T01:26:59.483Z,11.53
2017-11-09T01:29:26.986Z,12.37
2017-11-09T01:31:54.565Z,13.17
2017-11-09T01:34:22.877Z,11.93
2017-11-09T01:36:50.373Z,10.60
2017-11-09T01:39:17.884Z,11.90
2017-11-09T01:41:45.417Z,12.10
2017-11-09T01:44:13.689Z,12.40
2017-11-09T01:46:41.974Z,10.47
2017-11-09T01:49:10.278Z,12.90
2017-11-09T01:51:37.790Z,10.60
2017-11-09T01:54:06.078Z,14.00
2017-11-09T01:56:34.340Z,13.80
2017-11-09T01:59:02.670Z,12.80
2017-11-09T02:01:30.177Z,13.90
2017-11-09T02:03:58.462Z,14.37
2017-11-09T02:06:26.725Z,14.53
2017-11-09T02:08:55.015Z,12.20
2017-11-09T02:11:22.600Z,14.40
2017-11-09T02:13:50.126Z,13.37
2017-11-09T02:16:18.391Z,13.73
2017-11-09T02:18:45.937Z,13.47
2017-11-09T02:21:14.258Z,12.60
2017-11-09T02:23:41.771Z,11.83
2017-11-09T02:26:09.306Z,12.83
2017-11-09T02:28:36.829Z,12.13
2017-11-09T02:31:04.399Z,13.10
2017-11-09T02:33:31.904Z,13.33
2017-11-09T02:35:59.436Z,13.87
2017-11-09T02:38:26.952Z,13.30
2017-11-09T02:40:54.480Z,14.90
2017-11-09T02:43:22.043Z,13.50
2017-11-09T02:45:50.327Z,13.80
2017-11-09T02:48:18.609Z,15.03
2017-11-09T02:50:46.901Z,15.60
2017-11-09T02:53:14.465Z,14.70
2017-11-09T02:55:42.026Z,14.00
2017-11-09T02:58:09.554Z,15.07
2017-11-09T03:00:37.851Z,14.57
2017-11-09T03:03:05.376Z,14.80
2017-11-09T03:05:33.690Z,12.47
2017-11-09T03:08:01.554Z,13.97
2017-11-09T03:10:29.053Z,14.10
2017-11-09T03:12:56.562Z,15.40
2017-11-09T03:15:24.141Z,14.40
2017-11-09T03:17:51.684Z,15.00
2017-11-09T03:20:19.239Z,15.00
2017-11-09T03:22:46.753Z,14.73
2017-11-09T03:25:14.279Z,14.03
2017-11-09T03:27:41.802Z,13.53
2017-11-09T03:30:09.341Z,14.87
2017-11-09T03:32:37.645Z,14.70
2017-11-09T03:35:05.139Z,14.67
2017-11-09T03:37:32.664Z,13.90
2017-11-09T03:40:00.191Z,15.80
2017-11-09T03:42:28.460Z,14.53
2017-11-09T03:44:56.007Z,14.93
2017-11-09T03:47:23.513Z,15.90
2017-11-09T03:49:51.018Z,14.00
2017-11-09T03:52:18.539Z,14.23
2017-11-09T03:54:46.077Z,13.70
2017-11-09T03:57:13.643Z,15.67
2017-11-09T03:59:41.150Z,17.07
2017-11-09T04:02:10.194Z,16.80
2017-11-09T04:04:37.697Z,16.27
2017-11-09T04:07:05.226Z,15.90
2017-11-09T04:09:32.745Z,17.43
2017-11-09T04:12:01.022Z,18.07
2017-11-09T04:14:29.417Z,16.73
2017-11-09T04:16:56.927Z,16.23
2017-11-09T04:19:24.461Z,18.80
2017-11-09T04:21:51.973Z,17.43
2017-11-09T04:24:20.270Z,16.80
2017-11-09T04:26:47.780Z,17.60
2017-11-09T04:29:15.326Z,18.20
2017-11-09T04:31:42.843Z,18.03
2017-11-09T04:34:10.374Z,14.33
2017-11-09T04:36:38.680Z,16.00
2017-11-09T04:39:06.207Z,17.37
2017-11-09T04:41:34.511Z,17.13
2017-11-09T04:44:02.030Z,19.50
2017-11-09T04:46:29.553Z,18.73
2017-11-09T04:48:57.079Z,18.07
2017-11-09T04:51:24.606Z,17.80
2017-11-09T04:53:52.096Z,17.53
2017-11-09T04:56:19.626Z,17.23
2017-11-09T04:58:48.042Z,17.03
2017-11-09T05:01:15.569Z,16.13
2017-11-09T05:03:43.866Z,17.60
2017-11-09T05:06:11.401Z,17.70
2017-11-09T05:08:39.697Z,15.83
2017-11-09T05:11:07.249Z,16.40
2017-11-09T05:13:34.750Z,13.97
2017-11-09T05:16:02.297Z,16.27
2017-11-09T05:18:29.794Z,16.43
2017-11-09T05:20:57.397Z,15.27
2017-11-09T05:23:24.956Z,15.90
2017-11-09T05:25:52.502Z,16.83
2017-11-09T05:28:20.030Z,15.97
2017-11-09T05:30:48.330Z,16.33
2017-11-09T05:33:15.834Z,13.47
2017-11-09T05:35:43.451Z,14.17
2017-11-09T05:38:10.952Z,16.40
2017-11-09T05:40:38.473Z,16.17
2017-11-09T05:43:05.998Z,18.60
2017-11-09T05:45:33.588Z,16.93
2017-11-09T05:48:01.121Z,16.23
2017-11-09T05:50:28.635Z,15.70
2017-11-09T05:52:56.258Z,17.00
2017-11-09T05:55:23.765Z,16.80
2017-11-09T05:57:51.292Z,15.93
2017-11-09T06:00:18.798Z,17.83
2017-11-09T06:02:46.403Z,16.47
2017-11-09T06:05:13.954Z,18.20
2017-11-09T06:07:41.452Z,16.87
2017-11-09T06:10:08.950Z,17.97
2017-11-09T06:12:37.281Z,19.27
2017-11-09T06:15:04.792Z,18.20
2017-11-09T06:17:32.363Z,16.17
2017-11-09T06:19:59.856Z,14.73
2017-11-09T06:22:27.391Z,16.90
2017-11-09T06:24:54.911Z,17.67
2017-11-09T06:27:23.229Z,19.33
2017-11-09T06:29:50.756Z,15.00
2017-11-09T06:32:18.260Z,18.07
2017-11-09T06:34:45.782Z,15.47
2017-11-09T06:37:13.293Z,17.30
2017-11-09T06:39:41.204Z,19.13
2017-11-09T06:42:08.698Z,16.40
2017-11-09T06:44:36.201Z,16.80
2017-11-09T06:47:03.734Z,18.50
2017-11-09T06:49:31.233Z,16.67
2017-11-09T06:51:58.791Z,19.70
2017-11-09T06:54:26.354Z,19.37
2017-11-09T06:56:53.892Z,18.43
2017-11-09T06:59:22.172Z,15.63
2017-11-09T07:01:49.676Z,19.77
2017-11-09T07:04:17.217Z,18.97
2017-11-09T07:06:44.732Z,18.70
2017-11-09T07:09:13.004Z,17.50
2017-11-09T07:11:40.603Z,19.07
2017-11-09T07:14:08.121Z,18.20
2017-11-09T07:16:36.406Z,18.37
2017-11-09T07:19:04.675Z,18.13
2017-11-09T07:21:32.964Z,19.60
2017-11-09T07:24:00.488Z,19.90
2017-11-09T07:26:28.087Z,16.90
2017-11-09T07:28:55.615Z,18.07
2017-11-09T07:31:23.126Z,19.33
2017-11-09T07:33:50.664Z,19.63
2017-11-09T07:36:18.179Z,20.40
2017-11-09T07:38:46.078Z,17.90
2017-11-09T07:41:14.343Z,20.50
2017-11-09T07:43:42.630Z,19.50
2017-11-09T07:46:10.157Z,17.03
2017-11-09T07:48:37.658Z,20.60
2017-11-09T07:51:05.191Z,20.43
2017-11-09T07:53:33.458Z,18.70
2017-11-09T07:56:02.560Z,16.93
2017-11-09T07:58:30.849Z,18.20
2017-11-09T08:00:58.437Z,19.10
2017-11-09T08:03:26.096Z,18.37
2017-11-09T08:05:53.621Z,20.17
2017-11-09T08:08:21.904Z,18.93
2017-11-09T08:10:49.441Z,19.40
2017-11-09T08:13:17.715Z,19.90
2017-11-09T08:15:46.015Z,19.17
2017-11-09T08:18:13.519Z,20.00
2017-11-09T08:20:41.043Z,19.43
2017-11-09T08:23:08.545Z,18.00
2017-11-09T08:25:36.929Z,16.10
2017-11-09T08:28:06.048Z,18.90
2017-11-09T08:30:36.546Z,19.13
2017-11-09T08:33:06.069Z,16.90
2017-11-09T08:35:34.351Z,17.57
2017-11-09T08:38:02.626Z,19.20
2017-11-09T08:40:30.246Z,16.63
2017-11-09T08:42:57.780Z,19.47
2017-11-09T08:45:25.281Z,18.80
2017-11-09T08:47:52.784Z,18.57
2017-11-09T08:50:20.326Z,17.10
2017-11-09T08:52:48.581Z,17.80
2017-11-09T08:55:16.881Z,21.00
2017-11-09T08:57:44.409Z,17.73
2017-11-09T09:00:11.906Z,18.53
2017-11-09T09:02:39.442Z,18.27
2017-11-09T09:05:07.725Z,18.37
2017-11-09T09:07:35.253Z,14.83
2017-11-09T09:10:02.752Z,15.90
2017-11-09T09:12:30.274Z,17.40
2017-11-09T09:14:57.798Z,15.30
2017-11-09T09:17:25.297Z,14.70
2017-11-09T09:19:53.615Z,18.83
2017-11-09T09:22:21.118Z,15.93
2017-11-09T09:24:48.638Z,16.00
2017-11-09T09:27:21.765Z,14.80
2017-11-09T09:29:49.787Z,16.43
2017-11-09T09:32:17.304Z,12.87
2017-11-09T09:34:49.187Z,15.50
2017-11-09T09:37:22.230Z,15.00
2017-11-09T09:39:52.147Z,14.80
2017-11-09T09:42:19.670Z,16.00
2017-11-09T09:44:47.222Z,15.90
2017-11-09T09:47:14.754Z,15.00
2017-11-09T09:49:42.297Z,15.33
2017-11-09T09:52:10.594Z,15.70
2017-11-09T09:54:38.120Z,14.27
2017-11-09T09:57:05.661Z,15.20
2017-11-09T09:59:33.162Z,14.70
2017-11-09T10:02:00.674Z,15.27
2017-11-09T10:04:28.205Z,14.30
2017-11-09T10:06:55.752Z,13.63
2017-11-09T10:09:23.278Z,15.47
2017-11-09T10:11:51.565Z,13.27
2017-11-09T10:14:19.881Z,14.40
2017-11-09T10:16:47.397Z,13.67
2017-11-09T10:19:14.918Z,14.33
2017-11-09T10:21:42.481Z,14.23
2017-11-09T10:24:09.979Z,14.77
2017-11-09T10:26:37.560Z,14.70
2017-11-09T10:29:05.063Z,15.57
2017-11-09T10:31:33.374Z,15.10
2017-11-09T10:34:02.802Z,14.33
2017-11-09T10:36:30.325Z,13.87
2017-11-09T10:38:57.900Z,12.97
2017-11-09T10:41:25.430Z,12.60
2017-11-09T10:43:53.013Z,11.90
2017-11-09T10:46:20.515Z,12.27
2017-11-09T10:48:48.054Z,12.93
2017-11-09T10:51:15.612Z,11.57
2017-11-09T10:53:43.153Z,12.00
2017-11-09T10:56:10.709Z,9.90
2017-11-09T10:58:38.246Z,11.07
2017-11-09T11:01:06.574Z,11.20
2017-11-09T11:03:34.103Z,10.90
2017-11-09T11:06:01.622Z,11.77
2017-11-09T11:08:29.945Z,12.27
2017-11-09T11:10:57.596Z,11.93
2017-11-09T11:13:25.227Z,10.93
2017-11-09T11:15:52.797Z,11.67
2017-11-09T11:18:20.301Z,12.50
2017-11-09T11:20:47.834Z,11.23
2017-11-09T11:23:15.338Z,11.60
2017-11-09T11:25:42.936Z,11.60
2017-11-09T11:28:10.486Z,11.57
2017-11-09T11:30:38.030Z,10.73
2017-11-09T11:33:05.548Z,12.10
2017-11-09T11:35:33.131Z,11.97
2017-11-09T11:38:01.493Z,10.57
2017-11-09T11:40:28.999Z,11.57
2017-11-09T11:42:56.511Z,10.00
2017-11-09T11:45:24.029Z,10.50
2017-11-09T11:47:59.045Z,12.17
2017-11-09T11:50:26.605Z,12.10
2017-11-09T11:52:54.193Z,11.90
2017-11-09T11:55:21.770Z,11.93
2017-11-09T11:57:49.294Z,12.03
2017-11-09T12:00:16.818Z,10.83
2017-11-09T12:02:45.093Z,12.53
2017-11-09T12:05:16.307Z,12.07
2017-11-09T12:07:43.828Z,10.90
2017-11-09T12:10:11.390Z,11.10
2017-11-09T12:12:38.938Z,11.80
2017-11-09T12:15:06.474Z,11.30
2017-11-09T12:17:34.783Z,11.43
2017-11-09T12:20:02.309Z,11.70
2017-11-09T12:22:32.556Z,9.33
2017-11-09T12:25:00.092Z,11.77
2017-11-09T12:27:28.361Z,11.90
2017-11-09T12:29:56.673Z,9.50
2017-11-09T12:32:24.192Z,10.37
2017-11-09T12:34:52.583Z,11.33
2017-11-09T12:37:20.090Z,10.77
2017-11-09T12:39:47.624Z,12.27
2017-11-09T12:42:15.122Z,10.90
2017-11-09T12:44:43.398Z,10.60
2017-11-09T12:47:12.453Z,8.77
2017-11-09T12:49:39.972Z,10.90
2017-11-09T12:52:08.296Z,11.27
2017-11-09T12:54:35.824Z,10.57
2017-11-09T12:57:04.190Z,10.17
2017-11-09T12:59:32.474Z,8.57
2017-11-09T13:01:59.985Z,9.43
2017-11-09T13:04:27.605Z,7.80
2017-11-09T13:06:55.114Z,9.53
2017-11-09T13:09:23.026Z,10.87
2017-11-09T13:11:50.539Z,10.13
2017-11-09T13:14:18.051Z,10.67
2017-11-09T13:16:45.574Z,9.30
2017-11-09T13:19:13.841Z,10.87
2017-11-09T13:21:42.164Z,9.40
2017-11-09T13:24:09.695Z,10.77
2017-11-09T13:26:37.235Z,9.50
2017-11-09T13:29:05.496Z,9.27
2017-11-09T13:31:33.019Z,10.80
2017-11-09T13:34:00.529Z,9.50
2017-11-09T13:36:28.834Z,11.00
2017-11-09T13:38:56.378Z,11.73
2017-11-09T13:41:23.893Z,9.40
2017-11-09T13:43:51.433Z,12.20
2017-11-09T13:46:18.939Z,11.77
2017-11-09T13:48:47.234Z,11.37
2017-11-09T13:51:14.743Z,10.90
2017-11-09T13:53:42.269Z,12.17
2017-11-09T13:56:09.786Z,9.53
2017-11-09T13:58:38.049Z,12.37
2017-11-09T14:01:05.659Z,13.50
2017-11-09T14:03:33.166Z,12.77
2017-11-09T14:06:01.917Z,11.70
2017-11-09T14:08:29.444Z,12.97
2017-11-09T14:10:57.005Z,11.00
2017-11-09T14:13:24.524Z,11.50
2017-11-09T14:15:52.042Z,10.70
2017-11-09T14:18:19.585Z,10.50
2017-11-09T14:20:47.152Z,12.27
2017-11-09T14:23:14.673Z,11.13
2017-11-09T14:25:43.009Z,9.40
2017-11-09T14:28:10.529Z,8.83
2017-11-09T14:30:38.033Z,10.10
2017-11-09T14:33:05.568Z,10.10
2017-11-09T14:35:33.152Z,9.67
2017-11-09T14:38:00.685Z,9.87
2017-11-09T14:40:28.223Z,8.20
2017-11-09T14:42:55.749Z,8.03
2017-11-09T14:45:23.342Z,11.00
2017-11-09T14:47:50.870Z,9.60
2017-11-09T14:50:19.174Z,9.17
2017-11-09T14:52:46.715Z,9.30
2017-11-09T14:55:14.231Z,10.00
2017-11-09T14:57:41.779Z,8.73
2017-11-09T15:00:09.330Z,7.87
2017-11-09T15:02:36.901Z,8.37
2017-11-09T15:05:04.431Z,7.77
2017-11-09T15:07:31.934Z,9.70
2017-11-09T15:10:00.245Z,9.50
2017-11-09T15:12:27.792Z,9.33
2017-11-09T15:14:56.057Z,8.80
2017-11-09T15:17:24.371Z,9.90
2017-11-09T15:19:51.873Z,9.97
2017-11-09T15:22:19.393Z,9.80
2017-11-09T15:24:46.917Z,10.87
2017-11-09T15:27:14.425Z,10.70
2017-11-09T15:29:41.981Z,10.73
2017-11-09T15:32:11.341Z,11.37
2017-11-09T15:34:38.893Z,11.60
2017-11-09T15:37:06.427Z,10.20
2017-11-09T15:39:33.939Z,12.03
2017-11-09T15:42:01.470Z,12.27
2017-11-09T15:44:28.975Z,11.40
2017-11-09T15:46:56.549Z,10.60
2017-11-09T15:49:24.042Z,9.90
2017-11-09T15:51:51.563Z,13.63
2017-11-09T15:54:20.617Z,12.37
2017-11-09T15:56:48.142Z,11.40
2017-11-09T15:59:16.457Z,13.47
2017-11-09T16:01:43.977Z,12.53
2017-11-09T16:04:11.517Z,12.87
2017-11-09T16:06:41.755Z,13.70
2017-11-09T16:09:10.041Z,13.23
2017-11-09T16:11:37.598Z,14.50
2017-11-09T16:14:05.098Z,14.23
2017-11-09T16:16:32.646Z,15.60
2017-11-09T16:19:00.991Z,15.17
2017-11-09T16:21:28.543Z,14.43
2017-11-09T16:23:56.104Z,14.27
2017-11-09T16:26:26.153Z,13.93
2017-11-09T16:29:13.546Z,15.47
2017-11-09T16:31:41.848Z,14.10
2017-11-09T16:34:09.367Z,13.17
2017-11-09T16:36:37.642Z,14.17
2017-11-09T16:39:05.946Z,15.20
2017-11-09T16:41:33.452Z,15.20
2017-11-09T16:44:00.987Z,13.93
2017-11-09T16:46:28.496Z,13.10
2017-11-09T16:48:56.049Z,15.23
2017-11-09T16:51:24.342Z,11.57
2017-11-09T16:53:51.874Z,14.27
2017-11-09T16:56:21.046Z,12.80
2017-11-09T16:58:51.565Z,11.53
2017-11-09T17:01:19.071Z,12.67
2017-11-09T17:03:47.362Z,13.00
2017-11-09T17:06:14.913Z,13.20
2017-11-09T17:08:42.430Z,12.53
2017-11-09T17:11:10.738Z,12.30
2017-11-09T17:13:39.028Z,11.37
2017-11-09T17:16:06.595Z,12.93
2017-11-09T17:18:34.111Z,12.43
2017-11-09T17:21:01.631Z,13.50
2017-11-09T17:23:29.175Z,12.77
2017-11-09T17:25:56.681Z,13.00
2017-11-09T17:28:24.219Z,12.83
2017-11-09T17:30:51.729Z,13.40
2017-11-09T17:33:19.261Z,11.40
2017-11-09T17:35:46.778Z,13.67
2017-11-09T17:38:14.308Z,13.60
2017-11-09T17:40:41.852Z,11.10
2017-11-09T17:43:09.368Z,11.90
2017-11-09T17:45:36.929Z,13.20
2017-11-09T17:48:04.442Z,13.60
2017-11-09T17:50:32.009Z,13.80
2017-11-09T17:52:59.516Z,12.83
2017-11-09T17:55:27.835Z,12.53
2017-11-09T17:57:55.360Z,13.10
2017-11-09T18:00:23.792Z,12.23
2017-11-09T18:02:51.330Z,14.23
2017-11-09T18:05:18.835Z,12.40
2017-11-09T18:07:46.374Z,13.83
2017-11-09T18:10:13.911Z,13.00
2017-11-09T18:12:41.495Z,11.97
2017-11-09T18:15:09.045Z,11.77
2017-11-09T18:17:36.578Z,12.80
2017-11-09T18:20:04.153Z,10.57
2017-11-09T18:22:36.154Z,12.70
2017-11-09T18:25:03.721Z,13.93
2017-11-09T18:27:32.012Z,13.50
2017-11-09T18:30:00.288Z,13.33
2017-11-09T18:32:27.821Z,13.07
2017-11-09T18:34:55.338Z,14.20
2017-11-09T18:37:22.894Z,13.40
2017-11-09T18:39:50.405Z,12.53
2017-11-09T18:42:17.925Z,12.50
2017-11-09T18:44:45.478Z,12.03
2017-11-09T18:47:12.998Z,12.60
2017-11-09T18:49:40.568Z,10.90
2017-11-09T18:52:08.109Z,12.60
2017-11-09T18:54:36.419Z,13.17
2017-11-09T18:57:03.949Z,11.97
2017-11-09T18:59:31.497Z,11.93
2017-11-09T19:01:59.054Z,13.00
2017-11-09T19:04:27.350Z,11.80
2017-11-09T19:06:54.892Z,11.57
2017-11-09T19:09:30.437Z,12.10
2017-11-09T19:11:58.760Z,13.63
2017-11-09T19:14:26.271Z,14.40
2017-11-09T19:16:53.820Z,13.73
2017-11-09T19:19:22.124Z,13.60
2017-11-09T19:21:49.661Z,13.17
2017-11-09T19:24:17.222Z,12.10
2017-11-09T19:26:45.535Z,12.40
2017-11-09T19:29:13.066Z,12.90
2017-11-09T19:31:40.601Z,11.57
2017-11-09T19:34:08.883Z,11.17
2017-11-09T19:36:37.174Z,12.73
2017-11-09T19:39:04.709Z,11.90
2017-11-09T19:41:32.289Z,12.97
2017-11-09T19:43:59.811Z,11.43
2017-11-09T19:46:27.334Z,11.27
2017-11-09T19:48:54.887Z,11.43
2017-11-09T19:51:22.425Z,11.83
2017-11-09T19:53:50.008Z,12.30
2017-11-09T19:56:17.535Z,11.00
2017-11-09T19:58:45.086Z,11.70
2017-11-09T20:01:13.403Z,11.37
2017-11-09T20:03:40.950Z,11.10
2017-11-09T20:06:08.460Z,9.70
2017-11-09T20:08:36.042Z,10.10
2017-11-09T20:11:04.327Z,10.47
2017-11-09T20:13:31.919Z,11.60
2017-11-09T20:15:59.428Z,10.00
2017-11-09T20:18:27.748Z,12.23
2017-11-09T20:20:55.275Z,10.63
2017-11-09T20:23:22.799Z,10.07
2017-11-09T20:25:50.340Z,9.20
2017-11-09T20:28:17.873Z,10.80
2017-11-09T20:30:45.411Z,10.27
2017-11-09T20:33:15.763Z,9.27
2017-11-09T20:35:43.312Z,8.30
2017-11-09T20:38:10.818Z,9.97
2017-11-09T20:40:38.345Z,10.17
2017-11-09T20:43:05.851Z,8.60
2017-11-09T20:45:34.162Z,10.20
2017-11-09T20:48:01.817Z,8.13
2017-11-09T20:50:29.346Z,9.20
2017-11-09T20:52:57.827Z,8.87
2017-11-09T20:55:26.101Z,9.67
2017-11-09T20:57:54.448Z,8.77
2017-11-09T21:00:21.984Z,9.77
2017-11-09T21:02:49.557Z,9.90
2017-11-09T21:05:17.122Z,9.40
2017-11-09T21:07:44.667Z,10.10
2017-11-09T21:10:12.205Z,10.40
2017-11-09T21:12:39.724Z,26.80
2017-11-09T21:15:08.034Z,20.53
2017-11-09T21:17:35.578Z,12.13
2017-11-09T21:20:03.766Z,15.10
2017-11-09T21:22:31.305Z,14.87
2017-11-09T21:24:58.894Z,10.70
2017-11-09T21:27:26.456Z,10.13
2017-11-09T21:29:53.966Z,10.77
2017-11-09T21:32:22.285Z,11.00
2017-11-09T21:34:49.816Z,10.87
2017-11-09T21:37:17.329Z,9.83
2017-11-09T21:39:44.893Z,10.07
2017-11-09T21:42:12.427Z,11.00
2017-11-09T21:44:39.978Z,10.83
2017-11-09T21:47:07.498Z,10.90
2017-11-09T21:49:35.066Z,10.37
2017-11-09T21:52:02.619Z,9.50
2017-11-09T21:54:30.179Z,8.93
2017-11-09T21:56:57.742Z,10.07
2017-11-09T21:59:25.256Z,11.43
2017-11-09T22:01:52.816Z,11.57
2017-11-09T22:04:20.351Z,11.13
2017-11-09T22:06:47.879Z,12.67
2017-11-09T22:09:15.417Z,10.47
2017-11-09T22:11:42.960Z,10.07
2017-11-09T22:14:11.276Z,10.13
2017-11-09T22:16:38.923Z,11.60
2017-11-09T22:19:06.466Z,10.70
2017-11-09T22:21:34.753Z,11.30
2017-11-09T22:24:02.520Z,11.80
2017-11-09T22:26:30.297Z,12.37
2017-11-09T22:28:57.901Z,10.83
2017-11-09T22:31:26.400Z,10.47
2017-11-09T22:33:54.928Z,11.77
2017-11-09T22:36:22.677Z,10.83
2017-11-09T22:38:50.286Z,10.50
2017-11-09T22:41:17.839Z,10.60
2017-11-09T22:43:45.447Z,8.80
2017-11-09T22:46:12.955Z,10.17
2017-11-09T22:48:40.561Z,11.10
2017-11-09T22:51:08.086Z,9.33
2017-11-09T22:53:35.606Z,7.93
2017-11-09T22:56:03.152Z,8.83
2017-11-09T22:58:30.688Z,8.57
2017-11-09T23:00:58.202Z,7.90
2017-11-09T23:03:25.715Z,6.93
2017-11-09T23:05:53.284Z,7.00
2017-11-09T23:08:20.785Z,7.47
2017-11-09T23:10:48.335Z,6.80
2017-11-09T23:13:15.851Z,7.30
2017-11-09T23:15:43.370Z,6.23
2017-11-09T23:18:11.655Z,8.20
2017-11-09T23:20:39.931Z,8.80
2017-11-09T23:23:08.234Z,10.70
2017-11-09T23:25:35.774Z,14.87
2017-11-09T23:28:03.332Z,14.57
2017-11-09T23:30:30.850Z,12.80
2017-11-09T23:32:58.391Z,14.40
2017-11-09T23:35:25.890Z,12.00
2017-11-09T23:37:53.489Z,17.03
2017-11-09T23:40:21.056Z,15.83
2017-11-09T23:42:48.558Z,16.90
2017-11-09T23:45:16.110Z,15.93
2017-11-09T23:47:43.679Z,14.97
2017-11-09T23:50:12.018Z,15.50
2017-11-09T23:52:39.661Z,16.77
2017-11-09T23:55:07.192Z,18.40
2017-11-09T23:57:35.482Z,17.80
